sensor_id;sensor_type;location;lat;lon;timestamp;pressure;altitude;pressure_sealevel;temperature;humidity
69187;BME280;56301;56.864;60.554;2022-12-24T00:01:24;98695.63;;;25.72;32.43
69187;BME280;56301;56.864;60.554;2022-12-24T00:03:47;98703.91;;;25.70;32.28
69187;BME280;56301;56.864;60.554;2022-12-24T00:06:15;98702.91;;;25.72;31.78
69187;BME280;56301;56.864;60.554;2022-12-24T00:08:37;98702.91;;;25.72;31.57
69187;BME280;56301;56.864;60.554;2022-12-24T00:10:59;98704.59;;;25.73;31.44
69187;BME280;56301;56.864;60.554;2022-12-24T00:13:22;98702.91;;;25.72;31.99
69187;BME280;56301;56.864;60.554;2022-12-24T00:15:44;98702.91;;;25.72;31.78
69187;BME280;56301;56.864;60.554;2022-12-24T00:18:07;98705.63;;;25.72;31.93
69187;BME280;56301;56.864;60.554;2022-12-24T00:20:29;98708.34;;;25.72;31.78
69187;BME280;56301;56.864;60.554;2022-12-24T00:22:52;98711.69;;;25.74;31.97
69187;BME280;56301;56.864;60.554;2022-12-24T00:25:14;98705.63;;;25.72;32.17
69187;BME280;56301;56.864;60.554;2022-12-24T00:27:37;98704.59;;;25.73;32.03
69187;BME280;56301;56.864;60.554;2022-12-24T00:29:59;98697.50;;;25.72;31.07
69187;BME280;56301;56.864;60.554;2022-12-24T00:32:21;98700.19;;;25.72;32.38
69187;BME280;56301;56.864;60.554;2022-12-24T00:34:44;98697.50;;;25.72;32.22
69187;BME280;56301;56.864;60.554;2022-12-24T00:37:06;98696.66;;;25.71;32.32
69187;BME280;56301;56.864;60.554;2022-12-24T00:39:29;98699.38;;;25.71;32.48
69187;BME280;56301;56.864;60.554;2022-12-24T00:41:52;98700.19;;;25.72;31.94
69187;BME280;56301;56.864;60.554;2022-12-24T00:44:14;98688.53;;;25.71;32.00
69187;BME280;56301;56.864;60.554;2022-12-24T00:46:38;98691.25;;;25.71;31.55
69187;BME280;56301;56.864;60.554;2022-12-24T00:49:01;98692.06;;;25.72;32.07
69187;BME280;56301;56.864;60.554;2022-12-24T00:51:24;98693.09;;;25.70;32.21
69187;BME280;56301;56.864;60.554;2022-12-24T00:53:47;98695.78;;;25.70;31.74
69187;BME280;56301;56.864;60.554;2022-12-24T00:56:09;98692.91;;;25.72;32.02
69187;BME280;56301;56.864;60.554;2022-12-24T00:58:32;98693.09;;;25.70;32.24
69187;BME280;56301;56.864;60.554;2022-12-24T01:00:54;98696.66;;;25.71;32.36
69187;BME280;56301;56.864;60.554;2022-12-24T01:03:16;98688.53;;;25.71;31.92
69187;BME280;56301;56.864;60.554;2022-12-24T01:05:39;98684.94;;;25.70;32.02
69187;BME280;56301;56.864;60.554;2022-12-24T01:08:01;98688.69;;;25.69;32.44
69187;BME280;56301;56.864;60.554;2022-12-24T01:10:24;98684.13;;;25.70;31.93
69187;BME280;56301;56.864;60.554;2022-12-24T01:12:46;98677.84;;;25.69;32.38
69187;BME280;56301;56.864;60.554;2022-12-24T01:15:10;98691.41;;;25.69;32.23
69187;BME280;56301;56.864;60.554;2022-12-24T01:17:33;98689.53;;;25.70;31.39
69187;BME280;56301;56.864;60.554;2022-12-24T01:19:56;98695.78;;;25.70;32.29
69187;BME280;56301;56.864;60.554;2022-12-24T01:22:18;98699.53;;;25.69;32.19
69187;BME280;56301;56.864;60.554;2022-12-24T01:24:41;98706.63;;;25.70;31.82
69187;BME280;56301;56.864;60.554;2022-12-24T01:27:03;98703.09;;;25.70;31.49
69187;BME280;56301;56.864;60.554;2022-12-24T01:29:26;98703.91;;;25.70;31.58
69187;BME280;56301;56.864;60.554;2022-12-24T01:31:48;98697.88;;;25.68;31.53
69187;BME280;56301;56.864;60.554;2022-12-24T01:34:10;98694.13;;;25.69;32.10
69187;BME280;56301;56.864;60.554;2022-12-24T01:36:34;98690.38;;;25.70;31.29
69187;BME280;56301;56.864;60.554;2022-12-24T01:38:57;98691.41;;;25.69;31.73
69187;BME280;56301;56.864;60.554;2022-12-24T01:41:20;98686.00;;;25.69;31.76
69187;BME280;56301;56.864;60.554;2022-12-24T01:43:43;98690.56;;;25.69;32.02
69187;BME280;56301;56.864;60.554;2022-12-24T01:49:01;98685.81;;;25.71;31.46
69187;BME280;56301;56.864;60.554;2022-12-24T01:51:36;98688.06;;;25.67;31.90
69187;BME280;56301;56.864;60.554;2022-12-24T01:54:12;98687.88;;;25.69;31.79
69187;BME280;56301;56.864;60.554;2022-12-24T01:56:38;98687.88;;;25.69;31.97
69187;BME280;56301;56.864;60.554;2022-12-24T01:59:04;98692.44;;;25.68;32.20
69187;BME280;56301;56.864;60.554;2022-12-24T02:01:27;98694.13;;;25.69;31.89
69187;BME280;56301;56.864;60.554;2022-12-24T02:03:50;98685.38;;;25.67;32.25
69187;BME280;56301;56.864;60.554;2022-12-24T02:06:13;98684.31;;;25.68;31.81
69187;BME280;56301;56.864;60.554;2022-12-24T02:08:36;98688.91;;;25.68;31.41
69187;BME280;56301;56.864;60.554;2022-12-24T02:10:59;98692.44;;;25.68;31.96
69187;BME280;56301;56.864;60.554;2022-12-24T02:13:21;98690.56;;;25.69;31.64
69187;BME280;56301;56.864;60.554;2022-12-24T02:18:14;98683.28;;;25.69;31.94
69187;BME280;56301;56.864;60.554;2022-12-24T02:31:11;98678.69;;;25.70;31.78
69187;BME280;56301;56.864;60.554;2022-12-24T02:33:41;98675.97;;;25.70;31.24
69187;BME280;56301;56.864;60.554;2022-12-24T02:38:56;98684.13;;;25.70;31.78
69187;BME280;56301;56.864;60.554;2022-12-24T02:41:21;98676.81;;;25.70;31.00
69187;BME280;56301;56.864;60.554;2022-12-24T02:43:46;98678.69;;;25.70;31.90
69187;BME280;56301;56.864;60.554;2022-12-24T02:46:20;98679.53;;;25.70;31.25
69187;BME280;56301;56.864;60.554;2022-12-24T02:48:44;98675.16;;;25.69;31.20
69187;BME280;56301;56.864;60.554;2022-12-24T02:51:08;98671.41;;;25.70;31.85
69187;BME280;56301;56.864;60.554;2022-12-24T02:53:32;98677.84;;;25.69;31.44
69187;BME280;56301;56.864;60.554;2022-12-24T02:56:00;98678.69;;;25.70;31.14
69187;BME280;56301;56.864;60.554;2022-12-24T03:01:13;98687.03;;;25.68;31.89
69187;BME280;56301;56.864;60.554;2022-12-24T03:07:05;98678.69;;;25.70;32.07
69187;BME280;56301;56.864;60.554;2022-12-24T03:09:05;98672.44;;;25.69;31.94
69187;BME280;56301;56.864;60.554;2022-12-24T03:11:29;98667.03;;;25.69;31.80
69187;BME280;56301;56.864;60.554;2022-12-24T03:13:52;98670.56;;;25.70;31.51
69187;BME280;56301;56.864;60.554;2022-12-24T03:16:18;98668.69;;;25.70;31.97
69187;BME280;56301;56.864;60.554;2022-12-24T03:18:44;98663.28;;;25.70;32.00
69187;BME280;56301;56.864;60.554;2022-12-24T03:21:11;98660.56;;;25.70;32.21
69187;BME280;56301;56.864;60.554;2022-12-24T03:23:35;98658.88;;;25.69;31.54
69187;BME280;56301;56.864;60.554;2022-12-24T03:25:58;98664.13;;;25.71;31.90
69187;BME280;56301;56.864;60.554;2022-12-24T03:28:23;98659.56;;;25.72;31.65
69187;BME280;56301;56.864;60.554;2022-12-24T03:30:46;98656.19;;;25.69;31.55
69187;BME280;56301;56.864;60.554;2022-12-24T03:33:09;98652.44;;;25.70;31.79
69187;BME280;56301;56.864;60.554;2022-12-24T03:35:32;98653.47;;;25.69;31.51
69187;BME280;56301;56.864;60.554;2022-12-24T03:37:55;98653.47;;;25.69;31.46
69187;BME280;56301;56.864;60.554;2022-12-24T03:40:17;98649.72;;;25.70;31.31
69187;BME280;56301;56.864;60.554;2022-12-24T03:42:40;98663.28;;;25.70;31.38
69187;BME280;56301;56.864;60.554;2022-12-24T03:45:02;98665.97;;;25.70;31.35
69187;BME280;56301;56.864;60.554;2022-12-24T03:47:25;98672.28;;;25.71;32.00
69187;BME280;56301;56.864;60.554;2022-12-24T03:49:47;98674.13;;;25.70;31.38
69187;BME280;56301;56.864;60.554;2022-12-24T03:52:10;98657.84;;;25.70;31.40
69187;BME280;56301;56.864;60.554;2022-12-24T03:54:32;98652.44;;;25.70;31.41
69187;BME280;56301;56.864;60.554;2022-12-24T03:56:54;98662.25;;;25.72;31.54
69187;BME280;56301;56.864;60.554;2022-12-24T03:59:17;98668.69;;;25.70;31.95
69187;BME280;56301;56.864;60.554;2022-12-24T04:01:39;98670.41;;;25.72;31.40
69187;BME280;56301;56.864;60.554;2022-12-24T04:04:02;98673.09;;;25.72;31.70
69187;BME280;56301;56.864;60.554;2022-12-24T04:06:24;98672.06;;;25.73;31.57
69187;BME280;56301;56.864;60.554;2022-12-24T04:08:47;98668.69;;;25.70;31.68
69187;BME280;56301;56.864;60.554;2022-12-24T04:11:10;98677.47;;;25.73;31.78
69187;BME280;56301;56.864;60.554;2022-12-24T04:13:33;98675.81;;;25.72;31.89
69187;BME280;56301;56.864;60.554;2022-12-24T04:15:58;98677.69;;;25.71;32.19
69187;BME280;56301;56.864;60.554;2022-12-24T04:18:21;98681.22;;;25.72;32.03
69187;BME280;56301;56.864;60.554;2022-12-24T04:20:44;98680.41;;;25.71;31.04
69187;BME280;56301;56.864;60.554;2022-12-24T04:23:06;98683.94;;;25.72;31.83
69187;BME280;56301;56.864;60.554;2022-12-24T04:25:29;98689.38;;;25.72;31.30
69187;BME280;56301;56.864;60.554;2022-12-24T04:27:51;98675.81;;;25.72;31.67
69187;BME280;56301;56.864;60.554;2022-12-24T04:30:14;98683.94;;;25.72;31.35
69187;BME280;56301;56.864;60.554;2022-12-24T04:32:36;98682.06;;;25.72;31.80
69187;BME280;56301;56.864;60.554;2022-12-24T04:34:58;98669.56;;;25.71;31.80
69187;BME280;56301;56.864;60.554;2022-12-24T04:37:21;98670.41;;;25.72;31.83
69187;BME280;56301;56.864;60.554;2022-12-24T04:39:43;98667.69;;;25.72;31.33
69187;BME280;56301;56.864;60.554;2022-12-24T04:42:06;98669.34;;;25.73;31.57
69187;BME280;56301;56.864;60.554;2022-12-24T04:44:28;98649.72;;;25.70;31.34
69187;BME280;56301;56.864;60.554;2022-12-24T04:46:50;98651.44;;;25.72;31.24
69187;BME280;56301;56.864;60.554;2022-12-24T04:49:13;98652.25;;;25.72;31.11
69187;BME280;56301;56.864;60.554;2022-12-24T04:51:36;98654.13;;;25.72;31.82
69187;BME280;56301;56.864;60.554;2022-12-24T04:53:58;98655.81;;;25.73;31.74
69187;BME280;56301;56.864;60.554;2022-12-24T04:56:22;98662.88;;;25.74;31.67
69187;BME280;56301;56.864;60.554;2022-12-24T04:58:45;98668.53;;;25.72;31.85
69187;BME280;56301;56.864;60.554;2022-12-24T05:01:10;98658.50;;;25.73;31.09
69187;BME280;56301;56.864;60.554;2022-12-24T05:03:33;98662.25;;;25.72;31.19
69187;BME280;56301;56.864;60.554;2022-12-24T05:06:05;98662.25;;;25.72;31.96
69187;BME280;56301;56.864;60.554;2022-12-24T05:08:28;98663.94;;;25.73;32.22
69187;BME280;56301;56.864;60.554;2022-12-24T05:10:57;98656.84;;;25.72;31.21
69187;BME280;56301;56.864;60.554;2022-12-24T05:13:20;98663.72;;;25.74;31.47
69187;BME280;56301;56.864;60.554;2022-12-24T05:15:43;98666.44;;;25.74;31.01
69187;BME280;56301;56.864;60.554;2022-12-24T05:18:05;98664.75;;;25.73;31.37
69187;BME280;56301;56.864;60.554;2022-12-24T05:20:28;98668.31;;;25.74;31.11
69187;BME280;56301;56.864;60.554;2022-12-24T05:22:50;98667.47;;;25.73;31.06
69187;BME280;56301;56.864;60.554;2022-12-24T05:25:13;98663.94;;;25.73;31.15
69187;BME280;56301;56.864;60.554;2022-12-24T05:27:35;98663.94;;;25.73;30.91
69187;BME280;56301;56.864;60.554;2022-12-24T05:29:57;98669.34;;;25.73;31.62
69187;BME280;56301;56.864;60.554;2022-12-24T05:32:20;98666.63;;;25.73;31.45
69187;BME280;56301;56.864;60.554;2022-12-24T05:34:42;98668.31;;;25.74;31.71
69187;BME280;56301;56.864;60.554;2022-12-24T05:37:05;98671.03;;;25.74;31.43
69187;BME280;56301;56.864;60.554;2022-12-24T05:39:27;98664.59;;;25.75;31.35
69187;BME280;56301;56.864;60.554;2022-12-24T05:41:50;98671.84;;;25.74;31.33
69187;BME280;56301;56.864;60.554;2022-12-24T05:44:12;98673.72;;;25.74;31.35
69187;BME280;56301;56.864;60.554;2022-12-24T05:46:35;98669.16;;;25.74;31.18
69187;BME280;56301;56.864;60.554;2022-12-24T05:48:57;98671.84;;;25.74;31.54
69187;BME280;56301;56.864;60.554;2022-12-24T05:51:20;98667.47;;;25.73;31.72
69187;BME280;56301;56.864;60.554;2022-12-24T05:53:43;98671.03;;;25.74;31.73
69187;BME280;56301;56.864;60.554;2022-12-24T05:56:09;98675.44;;;25.75;31.47
69187;BME280;56301;56.864;60.554;2022-12-24T05:58:32;98680.84;;;25.75;30.92
69187;BME280;56301;56.864;60.554;2022-12-24T06:00:55;98679.16;;;25.74;31.76
69187;BME280;56301;56.864;60.554;2022-12-24T06:03:17;98675.59;;;25.73;31.88
69187;BME280;56301;56.864;60.554;2022-12-24T06:05:39;98682.69;;;25.74;31.54
69187;BME280;56301;56.864;60.554;2022-12-24T06:08:02;98679.97;;;25.74;31.79
69187;BME280;56301;56.864;60.554;2022-12-24T06:10:24;98683.56;;;25.75;31.66
69187;BME280;56301;56.864;60.554;2022-12-24T06:12:47;98690.81;;;25.74;31.39
69187;BME280;56301;56.864;60.554;2022-12-24T06:15:09;98695.41;;;25.74;31.58
69187;BME280;56301;56.864;60.554;2022-12-24T06:17:34;98698.13;;;25.74;31.16
69187;BME280;56301;56.864;60.554;2022-12-24T06:19:56;98697.94;;;25.75;31.58
69187;BME280;56301;56.864;60.554;2022-12-24T06:22:19;98699.81;;;25.75;30.92
69187;BME280;56301;56.864;60.554;2022-12-24T06:24:41;98701.66;;;25.74;31.33
69187;BME280;56301;56.864;60.554;2022-12-24T06:27:03;98702.53;;;25.75;30.86
69187;BME280;56301;56.864;60.554;2022-12-24T06:29:26;98706.25;;;25.74;30.80
69187;BME280;56301;56.864;60.554;2022-12-24T06:31:48;98702.53;;;25.75;31.37
69187;BME280;56301;56.864;60.554;2022-12-24T06:34:11;98699.63;;;25.76;31.54
69187;BME280;56301;56.864;60.554;2022-12-24T06:36:33;98713.38;;;25.75;31.13
69187;BME280;56301;56.864;60.554;2022-12-24T06:38:56;98709.63;;;25.76;31.44
69187;BME280;56301;56.864;60.554;2022-12-24T06:41:19;98707.94;;;25.75;31.91
69187;BME280;56301;56.864;60.554;2022-12-24T06:43:42;98710.66;;;25.75;31.49
69187;BME280;56301;56.864;60.554;2022-12-24T06:46:05;98700.66;;;25.75;31.45
69187;BME280;56301;56.864;60.554;2022-12-24T06:48:28;98701.50;;;25.76;31.67
69187;BME280;56301;56.864;60.554;2022-12-24T06:50:50;98708.78;;;25.75;31.32
69187;BME280;56301;56.864;60.554;2022-12-24T06:53:13;98698.78;;;25.76;31.37
69187;BME280;56301;56.864;60.554;2022-12-24T06:55:35;98704.19;;;25.76;31.59
69187;BME280;56301;56.864;60.554;2022-12-24T06:57:58;98698.78;;;25.76;31.25
69187;BME280;56301;56.864;60.554;2022-12-24T07:00:20;98704.19;;;25.76;31.47
69187;BME280;56301;56.864;60.554;2022-12-24T07:02:43;98705.03;;;25.76;31.43
69187;BME280;56301;56.864;60.554;2022-12-24T07:05:06;98705.03;;;25.76;31.29
69187;BME280;56301;56.864;60.554;2022-12-24T07:07:29;98705.03;;;25.76;31.76
69187;BME280;56301;56.864;60.554;2022-12-24T07:09:51;98709.63;;;25.76;31.38
69187;BME280;56301;56.864;60.554;2022-12-24T07:12:14;98701.66;;;25.74;31.64
69187;BME280;56301;56.864;60.554;2022-12-24T07:14:36;98712.50;;;25.74;31.45
69187;BME280;56301;56.864;60.554;2022-12-24T07:16:59;98713.38;;;25.75;31.58
69187;BME280;56301;56.864;60.554;2022-12-24T07:19:21;98718.78;;;25.75;31.63
69187;BME280;56301;56.864;60.554;2022-12-24T07:21:44;98716.09;;;25.75;31.84
69187;BME280;56301;56.864;60.554;2022-12-24T07:24:06;98698.97;;;25.74;31.67
69187;BME280;56301;56.864;60.554;2022-12-24T07:26:28;98703.53;;;25.74;31.52
69187;BME280;56301;56.864;60.554;2022-12-24T07:28:51;98708.13;;;25.73;31.73
69187;BME280;56301;56.864;60.554;2022-12-24T07:31:13;98712.72;;;25.73;31.38
69187;BME280;56301;56.864;60.554;2022-12-24T07:33:36;98706.25;;;25.74;31.83
69187;BME280;56301;56.864;60.554;2022-12-24T07:36:02;98698.97;;;25.74;31.10
69187;BME280;56301;56.864;60.554;2022-12-24T07:38:25;98690.00;;;25.74;31.10
69187;BME280;56301;56.864;60.554;2022-12-24T07:40:48;98689.16;;;25.73;31.73
69187;BME280;56301;56.864;60.554;2022-12-24T07:43:10;98684.56;;;25.74;31.88
69187;BME280;56301;56.864;60.554;2022-12-24T07:45:33;98679.16;;;25.74;31.29
69187;BME280;56301;56.864;60.554;2022-12-24T07:47:55;98690.00;;;25.74;30.96
69187;BME280;56301;56.864;60.554;2022-12-24T07:50:18;98677.47;;;25.73;31.58
69187;BME280;56301;56.864;60.554;2022-12-24T07:52:40;98667.69;;;25.72;30.80
69187;BME280;56301;56.864;60.554;2022-12-24T07:55:02;98660.38;;;25.72;30.92
69187;BME280;56301;56.864;60.554;2022-12-24T07:57:25;98658.50;;;25.73;31.04
69187;BME280;56301;56.864;60.554;2022-12-24T07:59:47;98659.34;;;25.73;31.87
69187;BME280;56301;56.864;60.554;2022-12-24T08:02:10;98652.88;;;25.74;31.24
69187;BME280;56301;56.864;60.554;2022-12-24T08:04:32;98651.03;;;25.75;30.99
69187;BME280;56301;56.864;60.554;2022-12-24T08:06:55;98647.47;;;25.74;31.52
69187;BME280;56301;56.864;60.554;2022-12-24T08:09:17;98637.50;;;25.75;31.05
69187;BME280;56301;56.864;60.554;2022-12-24T08:11:39;98637.50;;;25.75;31.26
69187;BME280;56301;56.864;60.554;2022-12-24T08:14:02;98646.47;;;25.75;31.48
69187;BME280;56301;56.864;60.554;2022-12-24T08:16:24;98640.19;;;25.75;31.48
69187;BME280;56301;56.864;60.554;2022-12-24T08:18:47;98649.16;;;25.75;31.43
69187;BME280;56301;56.864;60.554;2022-12-24T08:21:09;98647.28;;;25.76;31.34
69187;BME280;56301;56.864;60.554;2022-12-24T08:23:32;98660.00;;;25.75;31.66
69187;BME280;56301;56.864;60.554;2022-12-24T08:25:54;98658.97;;;25.76;31.34
69187;BME280;56301;56.864;60.554;2022-12-24T08:28:18;98663.56;;;25.76;31.32
69187;BME280;56301;56.864;60.554;2022-12-24T08:30:41;98664.59;;;25.75;31.32
69187;BME280;56301;56.864;60.554;2022-12-24T08:33:03;98660.00;;;25.75;31.55
69187;BME280;56301;56.864;60.554;2022-12-24T08:35:26;98666.25;;;25.76;31.82
69187;BME280;56301;56.864;60.554;2022-12-24T08:37:48;98668.13;;;25.75;31.43
69187;BME280;56301;56.864;60.554;2022-12-24T08:40:11;98679.81;;;25.76;31.18
69187;BME280;56301;56.864;60.554;2022-12-24T08:42:33;98681.69;;;25.75;31.05
69187;BME280;56301;56.864;60.554;2022-12-24T08:44:56;98682.53;;;25.76;31.63
69187;BME280;56301;56.864;60.554;2022-12-24T08:47:18;98680.84;;;25.75;31.04
69187;BME280;56301;56.864;60.554;2022-12-24T08:49:41;98678.16;;;25.75;31.60
69187;BME280;56301;56.864;60.554;2022-12-24T08:52:03;98680.84;;;25.75;31.69
69187;BME280;56301;56.864;60.554;2022-12-24T08:54:26;98667.31;;;25.75;31.72
69187;BME280;56301;56.864;60.554;2022-12-24T08:56:48;98675.44;;;25.75;31.35
69187;BME280;56301;56.864;60.554;2022-12-24T08:59:11;98674.56;;;25.74;31.96
69187;BME280;56301;56.864;60.554;2022-12-24T09:01:33;98669.16;;;25.74;31.20
69187;BME280;56301;56.864;60.554;2022-12-24T09:03:56;98680.84;;;25.75;30.88
69187;BME280;56301;56.864;60.554;2022-12-24T09:06:18;98677.09;;;25.76;30.96
69187;BME280;56301;56.864;60.554;2022-12-24T09:08:41;98670.63;;;25.77;31.07
69187;BME280;56301;56.864;60.554;2022-12-24T09:11:07;98677.72;;;25.78;30.75
69187;BME280;56301;56.864;60.554;2022-12-24T09:13:30;98680.44;;;25.78;31.42
69187;BME280;56301;56.864;60.554;2022-12-24T09:15:53;98691.28;;;25.78;30.99
69187;BME280;56301;56.864;60.554;2022-12-24T09:18:16;98693.38;;;25.76;31.44
69187;BME280;56301;56.864;60.554;2022-12-24T09:20:38;98679.59;;;25.77;31.49
69187;BME280;56301;56.864;60.554;2022-12-24T09:23:01;98675.22;;;25.76;31.49
69187;BME280;56301;56.864;60.554;2022-12-24T09:25:23;98678.78;;;25.77;31.08
69187;BME280;56301;56.864;60.554;2022-12-24T09:27:45;98666.25;;;25.76;31.25
69187;BME280;56301;56.864;60.554;2022-12-24T09:30:08;98667.94;;;25.77;30.93
69187;BME280;56301;56.864;60.554;2022-12-24T09:32:31;98676.91;;;25.77;31.23
69187;BME280;56301;56.864;60.554;2022-12-24T09:34:54;98684.19;;;25.77;31.83
69187;BME280;56301;56.864;60.554;2022-12-24T09:37:16;98689.63;;;25.77;31.27
69187;BME280;56301;56.864;60.554;2022-12-24T09:39:38;98685.03;;;25.77;31.33
69187;BME280;56301;56.864;60.554;2022-12-24T09:44:32;98681.47;;;25.77;31.38
69187;BME280;56301;56.864;60.554;2022-12-24T09:46:56;98689.44;;;25.78;31.07
69187;BME280;56301;56.864;60.554;2022-12-24T09:49:23;98683.16;;;25.78;31.70
69187;BME280;56301;56.864;60.554;2022-12-24T09:51:58;98698.44;;;25.79;30.84
69187;BME280;56301;56.864;60.554;2022-12-24T09:54:27;98696.69;;;25.78;31.18
69187;BME280;56301;56.864;60.554;2022-12-24T09:56:51;98702.13;;;25.78;31.46
69187;BME280;56301;56.864;60.554;2022-12-24T09:59:17;98696.69;;;25.78;31.22
69187;BME280;56301;56.864;60.554;2022-12-24T10:01:41;98704.84;;;25.78;30.94
69187;BME280;56301;56.864;60.554;2022-12-24T10:04:07;98700.44;;;25.77;31.88
69187;BME280;56301;56.864;60.554;2022-12-24T10:06:32;98693.16;;;25.77;31.02
69187;BME280;56301;56.864;60.554;2022-12-24T10:19:32;98698.78;;;25.76;31.50
69187;BME280;56301;56.864;60.554;2022-12-24T10:26:59;98711.50;;;25.75;31.17
69187;BME280;56301;56.864;60.554;2022-12-24T10:29:31;98720.47;;;25.76;31.72
69187;BME280;56301;56.864;60.554;2022-12-24T10:32:01;98714.22;;;25.75;31.43
69187;BME280;56301;56.864;60.554;2022-12-24T10:34:28;98714.38;;;25.74;31.38
69187;BME280;56301;56.864;60.554;2022-12-24T10:36:52;98718.97;;;25.73;31.18
69187;BME280;56301;56.864;60.554;2022-12-24T10:39:19;98718.13;;;25.73;31.63
69187;BME280;56301;56.864;60.554;2022-12-24T10:41:42;98721.88;;;25.72;31.85
69187;BME280;56301;56.864;60.554;2022-12-24T10:44:05;98726.47;;;25.71;31.87
69187;BME280;56301;56.864;60.554;2022-12-24T10:46:32;98722.06;;;25.70;31.74
69187;BME280;56301;56.864;60.554;2022-12-24T10:49:59;98722.88;;;25.70;31.43
69187;BME280;56301;56.864;60.554;2022-12-24T10:54:13;98726.63;;;25.69;31.85
69187;BME280;56301;56.864;60.554;2022-12-24T10:56:41;98723.94;;;25.69;32.05
69187;BME280;56301;56.864;60.554;2022-12-24T10:59:04;98732.06;;;25.69;31.78
69187;BME280;56301;56.864;60.554;2022-12-24T11:01:43;98729.34;;;25.69;31.51
69187;BME280;56301;56.864;60.554;2022-12-24T11:04:08;98730.38;;;25.68;32.12
69187;BME280;56301;56.864;60.554;2022-12-24T11:06:38;98724.97;;;25.68;31.81
69187;BME280;56301;56.864;60.554;2022-12-24T11:09:23;98730.38;;;25.68;31.86
69187;BME280;56301;56.864;60.554;2022-12-24T11:11:46;98722.44;;;25.67;32.04
69187;BME280;56301;56.864;60.554;2022-12-24T11:14:10;98726.00;;;25.67;32.17
69187;BME280;56301;56.864;60.554;2022-12-24T11:16:36;98721.59;;;25.66;31.90
69187;BME280;56301;56.864;60.554;2022-12-24T11:19:00;98707.41;;;25.64;31.89
69187;BME280;56301;56.864;60.554;2022-12-24T11:21:32;98723.47;;;25.66;31.89
69187;BME280;56301;56.864;60.554;2022-12-24T11:23:56;98720.13;;;25.64;31.25
69187;BME280;56301;56.864;60.554;2022-12-24T11:26:20;98736.19;;;25.65;32.26
69187;BME280;56301;56.864;60.554;2022-12-24T11:28:43;98747.84;;;25.66;31.94
69187;BME280;56301;56.864;60.554;2022-12-24T11:31:26;98752.25;;;25.67;31.85
69187;BME280;56301;56.864;60.554;2022-12-24T11:33:49;98748.69;;;25.66;31.49
69187;BME280;56301;56.864;60.554;2022-12-24T11:36:13;98758.69;;;25.66;32.11
69187;BME280;56301;56.864;60.554;2022-12-24T11:38:35;98756.19;;;25.64;32.23
69187;BME280;56301;56.864;60.554;2022-12-24T11:41:05;98752.44;;;25.65;31.33
69187;BME280;56301;56.864;60.554;2022-12-24T11:43:50;98754.31;;;25.65;31.32
69187;BME280;56301;56.864;60.554;2022-12-24T11:48:39;98747.03;;;25.65;31.76
69187;BME280;56301;56.864;60.554;2022-12-24T11:51:03;98758.69;;;25.66;31.75
69187;BME280;56301;56.864;60.554;2022-12-24T11:53:27;98759.53;;;25.66;31.65
69187;BME280;56301;56.864;60.554;2022-12-24T11:55:54;98761.63;;;25.64;31.94
69187;BME280;56301;56.864;60.554;2022-12-24T12:00:39;98764.13;;;25.66;31.26
69187;BME280;56301;56.864;60.554;2022-12-24T12:03:02;98755.81;;;25.67;31.89
69187;BME280;56301;56.864;60.554;2022-12-24T12:05:30;98768.69;;;25.65;31.88
69187;BME280;56301;56.864;60.554;2022-12-24T12:08:06;98768.69;;;25.65;31.65
69187;BME280;56301;56.864;60.554;2022-12-24T12:10:30;98773.28;;;25.65;31.18
69187;BME280;56301;56.864;60.554;2022-12-24T12:13:05;98776.63;;;25.67;31.41
69187;BME280;56301;56.864;60.554;2022-12-24T12:15:43;98774.13;;;25.65;31.65
69187;BME280;56301;56.864;60.554;2022-12-24T12:18:12;98781.22;;;25.66;31.25
69187;BME280;56301;56.864;60.554;2022-12-24T12:20:46;98782.06;;;25.67;31.89
69187;BME280;56301;56.864;60.554;2022-12-24T12:30:41;98780.22;;;25.67;31.06
69187;BME280;56301;56.864;60.554;2022-12-24T12:36:02;98793.75;;;25.67;31.95
69187;BME280;56301;56.864;60.554;2022-12-24T12:38:25;98791.03;;;25.67;31.56
69187;BME280;56301;56.864;60.554;2022-12-24T12:41:04;98793.75;;;25.67;31.66
69187;BME280;56301;56.864;60.554;2022-12-24T12:43:41;98805.44;;;25.68;31.10
69187;BME280;56301;56.864;60.554;2022-12-24T12:46:16;98804.59;;;25.67;31.86
69187;BME280;56301;56.864;60.554;2022-12-24T12:51:08;98810.84;;;25.68;31.34
69187;BME280;56301;56.864;60.554;2022-12-24T12:53:43;98786.25;;;25.69;31.46
69187;BME280;56301;56.864;60.554;2022-12-24T12:56:26;98772.44;;;25.64;31.32
69187;BME280;56301;56.864;60.554;2022-12-24T12:58:52;98772.84;;;25.32;27.40
69187;BME280;56301;56.864;60.554;2022-12-24T13:06:25;98815.09;;;24.65;29.41
69187;BME280;56301;56.864;60.554;2022-12-24T13:09:00;98827.25;;;24.69;29.02
69187;BME280;56301;56.864;60.554;2022-12-24T13:11:31;98812.50;;;24.72;29.65
69187;BME280;56301;56.864;60.554;2022-12-24T13:14:02;98822.31;;;24.73;29.75
69187;BME280;56301;56.864;60.554;2022-12-24T13:16:39;98827.53;;;24.74;30.83
69187;BME280;56301;56.864;60.554;2022-12-24T13:21:32;98835.66;;;24.74;31.11
69187;BME280;56301;56.864;60.554;2022-12-24T13:24:05;98830.25;;;24.74;31.03
69187;BME280;56301;56.864;60.554;2022-12-24T13:26:28;98832.75;;;24.76;31.33
69187;BME280;56301;56.864;60.554;2022-12-24T13:28:50;98830.25;;;24.74;31.63
69187;BME280;56301;56.864;60.554;2022-12-24T13:36:01;98841.44;;;24.71;31.02
69187;BME280;56301;56.864;60.554;2022-12-24T13:38:29;98851.22;;;24.72;30.91
69187;BME280;56301;56.864;60.554;2022-12-24T13:40:56;98845.81;;;24.72;32.14
69187;BME280;56301;56.864;60.554;2022-12-24T13:49:09;98846.00;;;24.71;31.90
69187;BME280;56301;56.864;60.554;2022-12-24T13:51:31;98837.69;;;24.72;31.86
69187;BME280;56301;56.864;60.554;2022-12-24T13:53:57;98851.91;;;24.74;31.72
69187;BME280;56301;56.864;60.554;2022-12-24T13:56:30;98847.50;;;24.73;31.55